sensor_id;sensor_type;location;lat;lon;timestamp;P1;durP1;ratioP1;P2;durP2;ratioP2
14096;SDS011;7125;48.106;11.544;2022-08-01T00:01:45;4.00;;;2.30;;
14096;SDS011;7125;48.106;11.544;2022-08-01T00:04:12;4.03;;;2.42;;
14096;SDS011;7125;48.106;11.544;2022-08-01T00:06:39;2.05;;;1.95;;
14096;SDS011;7125;48.106;11.544;2022-08-01T00:09:06;2.38;;;2.20;;
14096;SDS011;7125;48.106;11.544;2022-08-01T00:11:32;2.88;;;1.83;;
14096;SDS011;7125;48.106;11.544;2022-08-01T00:14:01;2.38;;;2.13;;
14096;SDS011;7125;48.106;11.544;2022-08-01T00:16:28;4.47;;;2.30;;
14096;SDS011;7125;48.106;11.544;2022-08-01T00:18:55;2.20;;;2.00;;
14096;SDS011;7125;48.106;11.544;2022-08-01T00:21:21;3.35;;;2.15;;
14096;SDS011;7125;48.106;11.544;2022-08-01T00:23:48;2.55;;;2.35;;
14096;SDS011;7125;48.106;11.544;2022-08-01T00:26:15;2.30;;;2.15;;
14096;SDS011;7125;48.106;11.544;2022-08-01T00:28:42;2.25;;;2.13;;
14096;SDS011;7125;48.106;11.544;2022-08-01T00:31:10;2.35;;;2.22;;
14096;SDS011;7125;48.106;11.544;2022-08-01T00:33:37;2.33;;;2.20;;
14096;SDS011;7125;48.106;11.544;2022-08-01T00:36:04;2.25;;;2.05;;
14096;SDS011;7125;48.106;11.544;2022-08-01T00:38:31;2.47;;;2.33;;
14096;SDS011;7125;48.106;11.544;2022-08-01T00:40:58;3.13;;;2.63;;
14096;SDS011;7125;48.106;11.544;2022-08-01T00:43:25;3.72;;;2.42;;
14096;SDS011;7125;48.106;11.544;2022-08-01T00:45:51;1.88;;;1.77;;
14096;SDS011;7125;48.106;11.544;2022-08-01T00:48:20;2.22;;;2.03;;
14096;SDS011;7125;48.106;11.544;2022-08-01T00:50:46;2.65;;;2.45;;
14096;SDS011;7125;48.106;11.544;2022-08-01T00:53:13;2.85;;;2.50;;
14096;SDS011;7125;48.106;11.544;2022-08-01T00:55:40;2.63;;;2.42;;
14096;SDS011;7125;48.106;11.544;2022-08-01T00:58:08;2.03;;;1.83;;
14096;SDS011;7125;48.106;11.544;2022-08-01T01:00:35;2.40;;;2.20;;
14096;SDS011;7125;48.106;11.544;2022-08-01T01:03:02;2.08;;;1.83;;
14096;SDS011;7125;48.106;11.544;2022-08-01T01:05:31;3.60;;;2.20;;
14096;SDS011;7125;48.106;11.544;2022-08-01T01:08:07;2.30;;;2.10;;
14096;SDS011;7125;48.106;11.544;2022-08-01T01:10:54;2.00;;;1.90;;
14096;SDS011;7125;48.106;11.544;2022-08-01T01:13:25;2.30;;;1.77;;
14096;SDS011;7125;48.106;11.544;2022-08-01T01:16:01;2.97;;;2.20;;
14096;SDS011;7125;48.106;11.544;2022-08-01T01:18:35;2.65;;;2.00;;
14096;SDS011;7125;48.106;11.544;2022-08-01T01:21:13;2.30;;;2.00;;
14096;SDS011;7125;48.106;11.544;2022-08-01T01:23:54;3.28;;;1.92;;
14096;SDS011;7125;48.106;11.544;2022-08-01T01:26:31;2.25;;;2.05;;
14096;SDS011;7125;48.106;11.544;2022-08-01T01:29:08;2.50;;;2.30;;
14096;SDS011;7125;48.106;11.544;2022-08-01T01:31:42;5.63;;;2.17;;
14096;SDS011;7125;48.106;11.544;2022-08-01T01:34:12;1.92;;;1.65;;
14096;SDS011;7125;48.106;11.544;2022-08-01T01:36:41;2.38;;;2.20;;
14096;SDS011;7125;48.106;11.544;2022-08-01T01:39:11;2.10;;;1.85;;
14096;SDS011;7125;48.106;11.544;2022-08-01T01:41:39;2.58;;;2.00;;
14096;SDS011;7125;48.106;11.544;2022-08-01T01:44:09;2.53;;;2.33;;
14096;SDS011;7125;48.106;11.544;2022-08-01T01:46:36;2.42;;;1.80;;
14096;SDS011;7125;48.106;11.544;2022-08-01T01:49:04;2.20;;;2.10;;
14096;SDS011;7125;48.106;11.544;2022-08-01T01:51:35;1.85;;;1.75;;
14096;SDS011;7125;48.106;11.544;2022-08-01T01:54:03;2.55;;;2.40;;
14096;SDS011;7125;48.106;11.544;2022-08-01T01:56:31;4.63;;;2.03;;
14096;SDS011;7125;48.106;11.544;2022-08-01T01:59:00;2.20;;;2.00;;
14096;SDS011;7125;48.106;11.544;2022-08-01T02:01:31;1.88;;;1.77;;
14096;SDS011;7125;48.106;11.544;2022-08-01T02:04:01;2.15;;;2.00;;
14096;SDS011;7125;48.106;11.544;2022-08-01T02:06:28;2.03;;;1.92;;
14096;SDS011;7125;48.106;11.544;2022-08-01T02:08:57;2.10;;;2.00;;
14096;SDS011;7125;48.106;11.544;2022-08-01T02:11:26;2.33;;;2.17;;
14096;SDS011;7125;48.106;11.544;2022-08-01T02:13:55;2.70;;;1.95;;
14096;SDS011;7125;48.106;11.544;2022-08-01T02:16:26;2.67;;;2.47;;
14096;SDS011;7125;48.106;11.544;2022-08-01T02:18:57;2.67;;;1.98;;
14096;SDS011;7125;48.106;11.544;2022-08-01T02:21:26;1.98;;;1.88;;
14096;SDS011;7125;48.106;11.544;2022-08-01T02:23:54;1.92;;;1.83;;
14096;SDS011;7125;48.106;11.544;2022-08-01T02:26:26;2.70;;;2.50;;
14096;SDS011;7125;48.106;11.544;2022-08-01T02:28:56;1.73;;;1.63;;
14096;SDS011;7125;48.106;11.544;2022-08-01T02:31:25;1.95;;;1.55;;
14096;SDS011;7125;48.106;11.544;2022-08-01T02:33:55;3.00;;;2.15;;
14096;SDS011;7125;48.106;11.544;2022-08-01T02:36:28;2.08;;;1.98;;
14096;SDS011;7125;48.106;11.544;2022-08-01T02:38:56;2.47;;;1.80;;
14096;SDS011;7125;48.106;11.544;2022-08-01T02:41:25;4.45;;;1.98;;
14096;SDS011;7125;48.106;11.544;2022-08-01T02:43:53;1.95;;;1.85;;
14096;SDS011;7125;48.106;11.544;2022-08-01T02:46:26;4.72;;;2.35;;
14096;SDS011;7125;48.106;11.544;2022-08-01T02:48:55;2.70;;;2.50;;
14096;SDS011;7125;48.106;11.544;2022-08-01T02:51:25;2.28;;;1.60;;
14096;SDS011;7125;48.106;11.544;2022-08-01T02:53:53;2.58;;;1.83;;
14096;SDS011;7125;48.106;11.544;2022-08-01T02:56:21;1.98;;;1.85;;
14096;SDS011;7125;48.106;11.544;2022-08-01T02:59:00;4.53;;;1.98;;
14096;SDS011;7125;48.106;11.544;2022-08-01T03:01:29;4.85;;;2.20;;
14096;SDS011;7125;48.106;11.544;2022-08-01T03:03:59;2.53;;;1.98;;
14096;SDS011;7125;48.106;11.544;2022-08-01T03:06:26;2.13;;;1.95;;
14096;SDS011;7125;48.106;11.544;2022-08-01T03:08:54;2.67;;;2.40;;
14096;SDS011;7125;48.106;11.544;2022-08-01T03:11:22;3.03;;;1.98;;
14096;SDS011;7125;48.106;11.544;2022-08-01T03:13:51;2.42;;;2.20;;
14096;SDS011;7125;48.106;11.544;2022-08-01T03:16:19;2.03;;;1.83;;
14096;SDS011;7125;48.106;11.544;2022-08-01T03:18:47;2.53;;;2.22;;
14096;SDS011;7125;48.106;11.544;2022-08-01T03:21:16;3.13;;;2.15;;
14096;SDS011;7125;48.106;11.544;2022-08-01T03:23:45;2.05;;;1.95;;
14096;SDS011;7125;48.106;11.544;2022-08-01T03:26:15;2.92;;;2.63;;
14096;SDS011;7125;48.106;11.544;2022-08-01T03:28:43;3.53;;;2.38;;
14096;SDS011;7125;48.106;11.544;2022-08-01T03:31:12;2.35;;;2.15;;
14096;SDS011;7125;48.106;11.544;2022-08-01T03:33:40;4.13;;;2.63;;
14096;SDS011;7125;48.106;11.544;2022-08-01T03:36:07;1.90;;;1.80;;
14096;SDS011;7125;48.106;11.544;2022-08-01T03:38:38;2.70;;;2.42;;
14096;SDS011;7125;48.106;11.544;2022-08-01T03:41:08;2.08;;;1.88;;
14096;SDS011;7125;48.106;11.544;2022-08-01T03:43:40;2.50;;;2.35;;
14096;SDS011;7125;48.106;11.544;2022-08-01T03:46:13;5.03;;;2.13;;
14096;SDS011;7125;48.106;11.544;2022-08-01T03:48:47;4.50;;;2.50;;
14096;SDS011;7125;48.106;11.544;2022-08-01T03:51:15;3.45;;;2.50;;
14096;SDS011;7125;48.106;11.544;2022-08-01T03:53:45;7.22;;;2.38;;
14096;SDS011;7125;48.106;11.544;2022-08-01T03:56:16;2.75;;;2.50;;
14096;SDS011;7125;48.106;11.544;2022-08-01T03:58:45;2.60;;;2.17;;
14096;SDS011;7125;48.106;11.544;2022-08-01T04:01:12;2.53;;;2.33;;
14096;SDS011;7125;48.106;11.544;2022-08-01T04:03:40;1.90;;;1.80;;
14096;SDS011;7125;48.106;11.544;2022-08-01T04:06:07;3.35;;;2.60;;
14096;SDS011;7125;48.106;11.544;2022-08-01T04:08:35;2.53;;;2.20;;
14096;SDS011;7125;48.106;11.544;2022-08-01T04:11:04;2.35;;;2.25;;
14096;SDS011;7125;48.106;11.544;2022-08-01T04:13:31;3.00;;;2.35;;
14096;SDS011;7125;48.106;11.544;2022-08-01T04:15:58;2.85;;;2.53;;
14096;SDS011;7125;48.106;11.544;2022-08-01T04:18:25;2.95;;;2.35;;
14096;SDS011;7125;48.106;11.544;2022-08-01T04:20:52;3.60;;;3.30;;
14096;SDS011;7125;48.106;11.544;2022-08-01T04:23:20;2.97;;;2.65;;
14096;SDS011;7125;48.106;11.544;2022-08-01T04:25:50;4.45;;;2.50;;
14096;SDS011;7125;48.106;11.544;2022-08-01T04:28:19;3.53;;;3.22;;
14096;SDS011;7125;48.106;11.544;2022-08-01T04:30:48;2.55;;;1.95;;
14096;SDS011;7125;48.106;11.544;2022-08-01T04:33:17;2.72;;;2.53;;
14096;SDS011;7125;48.106;11.544;2022-08-01T04:35:46;2.30;;;2.10;;
14096;SDS011;7125;48.106;11.544;2022-08-01T04:38:15;2.40;;;2.20;;
14096;SDS011;7125;48.106;11.544;2022-08-01T04:40:46;2.10;;;2.00;;
14096;SDS011;7125;48.106;11.544;2022-08-01T04:43:15;2.80;;;2.60;;
14096;SDS011;7125;48.106;11.544;2022-08-01T04:45:45;3.42;;;2.85;;
14096;SDS011;7125;48.106;11.544;2022-08-01T04:48:15;4.60;;;3.08;;
14096;SDS011;7125;48.106;11.544;2022-08-01T04:50:44;2.85;;;1.75;;
14096;SDS011;7125;48.106;11.544;2022-08-01T04:53:12;2.45;;;2.25;;
14096;SDS011;7125;48.106;11.544;2022-08-01T04:55:39;2.17;;;2.05;;
14096;SDS011;7125;48.106;11.544;2022-08-01T04:58:06;2.72;;;2.53;;
14096;SDS011;7125;48.106;11.544;2022-08-01T05:00:34;4.38;;;2.35;;
14096;SDS011;7125;48.106;11.544;2022-08-01T05:03:03;2.83;;;2.42;;
14096;SDS011;7125;48.106;11.544;2022-08-01T05:05:30;4.30;;;2.60;;
14096;SDS011;7125;48.106;11.544;2022-08-01T05:07:57;2.35;;;2.20;;
14096;SDS011;7125;48.106;11.544;2022-08-01T05:10:24;7.88;;;3.17;;
14096;SDS011;7125;48.106;11.544;2022-08-01T05:12:51;2.10;;;1.88;;
14096;SDS011;7125;48.106;11.544;2022-08-01T05:15:18;4.20;;;3.50;;
14096;SDS011;7125;48.106;11.544;2022-08-01T05:17:45;2.10;;;2.00;;
14096;SDS011;7125;48.106;11.544;2022-08-01T05:20:13;2.38;;;2.25;;
14096;SDS011;7125;48.106;11.544;2022-08-01T05:22:40;3.05;;;2.63;;
14096;SDS011;7125;48.106;11.544;2022-08-01T05:25:07;3.15;;;2.30;;
14096;SDS011;7125;48.106;11.544;2022-08-01T05:27:34;2.38;;;2.17;;
14096;SDS011;7125;48.106;11.544;2022-08-01T05:30:05;2.40;;;2.17;;
14096;SDS011;7125;48.106;11.544;2022-08-01T05:32:33;3.53;;;2.70;;
14096;SDS011;7125;48.106;11.544;2022-08-01T05:35:00;2.92;;;2.35;;
14096;SDS011;7125;48.106;11.544;2022-08-01T05:37:28;2.10;;;2.00;;
14096;SDS011;7125;48.106;11.544;2022-08-01T05:39:55;2.42;;;2.22;;
14096;SDS011;7125;48.106;11.544;2022-08-01T05:42:22;2.80;;;2.53;;
14096;SDS011;7125;48.106;11.544;2022-08-01T05:44:49;3.75;;;2.10;;
14096;SDS011;7125;48.106;11.544;2022-08-01T05:47:16;2.25;;;2.05;;
14096;SDS011;7125;48.106;11.544;2022-08-01T05:49:43;3.83;;;2.45;;
14096;SDS011;7125;48.106;11.544;2022-08-01T05:52:10;2.20;;;2.00;;
14096;SDS011;7125;48.106;11.544;2022-08-01T05:54:39;3.53;;;2.38;;
14096;SDS011;7125;48.106;11.544;2022-08-01T05:57:06;3.83;;;2.78;;
14096;SDS011;7125;48.106;11.544;2022-08-01T05:59:32;3.10;;;2.30;;
14096;SDS011;7125;48.106;11.544;2022-08-01T06:01:59;4.55;;;2.45;;
14096;SDS011;7125;48.106;11.544;2022-08-01T06:04:26;2.60;;;2.40;;
14096;SDS011;7125;48.106;11.544;2022-08-01T06:06:53;5.25;;;2.65;;
14096;SDS011;7125;48.106;11.544;2022-08-01T06:09:20;3.42;;;3.13;;
14096;SDS011;7125;48.106;11.544;2022-08-01T06:11:48;3.35;;;2.92;;
14096;SDS011;7125;48.106;11.544;2022-08-01T06:14:15;4.03;;;2.70;;
14096;SDS011;7125;48.106;11.544;2022-08-01T06:16:42;3.33;;;2.95;;
14096;SDS011;7125;48.106;11.544;2022-08-01T06:19:09;2.40;;;2.17;;
14096;SDS011;7125;48.106;11.544;2022-08-01T06:21:35;4.55;;;3.13;;
14096;SDS011;7125;48.106;11.544;2022-08-01T06:24:03;2.58;;;2.45;;
14096;SDS011;7125;48.106;11.544;2022-08-01T06:26:30;2.05;;;1.95;;
14096;SDS011;7125;48.106;11.544;2022-08-01T06:28:58;5.93;;;2.85;;
14096;SDS011;7125;48.106;11.544;2022-08-01T06:31:25;2.75;;;2.38;;
14096;SDS011;7125;48.106;11.544;2022-08-01T06:33:52;3.97;;;2.58;;
14096;SDS011;7125;48.106;11.544;2022-08-01T06:36:18;2.38;;;2.10;;
14096;SDS011;7125;48.106;11.544;2022-08-01T06:38:45;2.92;;;2.60;;
14096;SDS011;7125;48.106;11.544;2022-08-01T06:41:12;3.33;;;2.38;;
14096;SDS011;7125;48.106;11.544;2022-08-01T06:43:39;4.30;;;2.35;;
14096;SDS011;7125;48.106;11.544;2022-08-01T06:46:07;3.20;;;2.38;;
14096;SDS011;7125;48.106;11.544;2022-08-01T06:48:34;3.33;;;3.03;;
14096;SDS011;7125;48.106;11.544;2022-08-01T06:51:04;2.78;;;2.53;;
14096;SDS011;7125;48.106;11.544;2022-08-01T06:53:33;3.40;;;3.08;;
14096;SDS011;7125;48.106;11.544;2022-08-01T06:56:01;3.78;;;2.80;;
14096;SDS011;7125;48.106;11.544;2022-08-01T06:58:28;4.07;;;2.97;;
14096;SDS011;7125;48.106;11.544;2022-08-01T07:00:55;3.53;;;2.42;;
14096;SDS011;7125;48.106;11.544;2022-08-01T07:03:23;3.63;;;2.85;;
14096;SDS011;7125;48.106;11.544;2022-08-01T07:05:50;2.58;;;2.38;;
14096;SDS011;7125;48.106;11.544;2022-08-01T07:08:16;3.75;;;2.35;;
14096;SDS011;7125;48.106;11.544;2022-08-01T07:10:43;3.58;;;3.28;;
14096;SDS011;7125;48.106;11.544;2022-08-01T07:13:10;7.05;;;2.90;;
14096;SDS011;7125;48.106;11.544;2022-08-01T07:15:37;2.85;;;2.15;;
14096;SDS011;7125;48.106;11.544;2022-08-01T07:18:04;2.83;;;2.63;;
14096;SDS011;7125;48.106;11.544;2022-08-01T07:20:32;3.50;;;2.35;;
14096;SDS011;7125;48.106;11.544;2022-08-01T07:22:59;3.10;;;2.45;;
14096;SDS011;7125;48.106;11.544;2022-08-01T07:25:25;2.60;;;2.35;;
14096;SDS011;7125;48.106;11.544;2022-08-01T07:27:52;2.90;;;2.67;;
14096;SDS011;7125;48.106;11.544;2022-08-01T07:30:19;4.22;;;2.47;;
14096;SDS011;7125;48.106;11.544;2022-08-01T07:32:46;3.53;;;2.70;;
14096;SDS011;7125;48.106;11.544;2022-08-01T07:35:13;3.30;;;3.00;;
14096;SDS011;7125;48.106;11.544;2022-08-01T07:37:41;3.60;;;2.67;;
14096;SDS011;7125;48.106;11.544;2022-08-01T07:40:08;5.25;;;3.05;;
14096;SDS011;7125;48.106;11.544;2022-08-01T07:42:36;4.68;;;3.08;;
14096;SDS011;7125;48.106;11.544;2022-08-01T07:45:03;3.67;;;3.35;;
14096;SDS011;7125;48.106;11.544;2022-08-01T07:47:30;3.00;;;2.80;;
14096;SDS011;7125;48.106;11.544;2022-08-01T07:50:00;3.45;;;3.15;;
14096;SDS011;7125;48.106;11.544;2022-08-01T07:52:27;2.67;;;2.47;;
14096;SDS011;7125;48.106;11.544;2022-08-01T07:54:56;3.10;;;2.90;;
14096;SDS011;7125;48.106;11.544;2022-08-01T07:57:24;3.17;;;2.90;;
14096;SDS011;7125;48.106;11.544;2022-08-01T07:59:51;6.35;;;3.03;;
14096;SDS011;7125;48.106;11.544;2022-08-01T08:02:18;3.03;;;2.83;;
14096;SDS011;7125;48.106;11.544;2022-08-01T08:04:44;3.30;;;3.00;;
14096;SDS011;7125;48.106;11.544;2022-08-01T08:07:11;5.72;;;3.42;;
14096;SDS011;7125;48.106;11.544;2022-08-01T08:09:38;3.53;;;3.22;;
14096;SDS011;7125;48.106;11.544;2022-08-01T08:12:06;3.65;;;2.95;;
14096;SDS011;7125;48.106;11.544;2022-08-01T08:14:35;2.50;;;2.30;;
14096;SDS011;7125;48.106;11.544;2022-08-01T08:17:02;3.15;;;2.95;;
14096;SDS011;7125;48.106;11.544;2022-08-01T08:19:29;3.33;;;3.03;;
14096;SDS011;7125;48.106;11.544;2022-08-01T08:21:58;3.05;;;2.83;;
14096;SDS011;7125;48.106;11.544;2022-08-01T08:24:25;2.22;;;2.13;;
14096;SDS011;7125;48.106;11.544;2022-08-01T08:26:54;6.95;;;2.88;;
14096;SDS011;7125;48.106;11.544;2022-08-01T08:29:23;3.97;;;2.47;;
14096;SDS011;7125;48.106;11.544;2022-08-01T08:31:51;2.78;;;2.58;;
14096;SDS011;7125;48.106;11.544;2022-08-01T08:34:19;2.83;;;2.60;;
14096;SDS011;7125;48.106;11.544;2022-08-01T08:36:46;3.78;;;3.47;;
14096;SDS011;7125;48.106;11.544;2022-08-01T08:39:13;3.95;;;3.33;;
14096;SDS011;7125;48.106;11.544;2022-08-01T08:41:40;2.92;;;2.70;;
14096;SDS011;7125;48.106;11.544;2022-08-01T08:44:07;3.70;;;3.15;;
14096;SDS011;7125;48.106;11.544;2022-08-01T08:46:38;3.22;;;2.92;;
14096;SDS011;7125;48.106;11.544;2022-08-01T08:49:07;2.72;;;2.55;;
14096;SDS011;7125;48.106;11.544;2022-08-01T08:51:35;4.70;;;3.28;;
14096;SDS011;7125;48.106;11.544;2022-08-01T08:54:06;4.00;;;2.78;;
14096;SDS011;7125;48.106;11.544;2022-08-01T08:56:34;3.17;;;2.65;;
14096;SDS011;7125;48.106;11.544;2022-08-01T08:59:02;3.03;;;2.80;;
14096;SDS011;7125;48.106;11.544;2022-08-01T09:01:30;2.70;;;2.50;;
14096;SDS011;7125;48.106;11.544;2022-08-01T09:04:00;3.38;;;2.72;;
14096;SDS011;7125;48.106;11.544;2022-08-01T09:06:28;3.53;;;2.75;;
14096;SDS011;7125;48.106;11.544;2022-08-01T09:08:55;2.13;;;2.03;;
14096;SDS011;7125;48.106;11.544;2022-08-01T09:11:22;2.35;;;2.15;;
14096;SDS011;7125;48.106;11.544;2022-08-01T09:14:06;3.15;;;2.45;;
14096;SDS011;7125;48.106;11.544;2022-08-01T09:16:36;2.78;;;2.55;;
14096;SDS011;7125;48.106;11.544;2022-08-01T09:19:08;5.00;;;2.83;;
14096;SDS011;7125;48.106;11.544;2022-08-01T09:21:36;2.70;;;2.50;;
14096;SDS011;7125;48.106;11.544;2022-08-01T09:24:04;3.25;;;2.95;;
14096;SDS011;7125;48.106;11.544;2022-08-01T09:26:40;3.58;;;3.30;;
14096;SDS011;7125;48.106;11.544;2022-08-01T09:29:08;3.50;;;2.30;;
14096;SDS011;7125;48.106;11.544;2022-08-01T09:31:45;7.43;;;2.92;;
14096;SDS011;7125;48.106;11.544;2022-08-01T09:34:14;4.18;;;2.55;;
14096;SDS011;7125;48.106;11.544;2022-08-01T09:36:46;2.08;;;1.98;;
14096;SDS011;7125;48.106;11.544;2022-08-01T09:39:16;2.42;;;2.05;;
14096;SDS011;7125;48.106;11.544;2022-08-01T09:41:44;6.13;;;2.03;;
14096;SDS011;7125;48.106;11.544;2022-08-01T09:44:11;2.05;;;1.65;;
14096;SDS011;7125;48.106;11.544;2022-08-01T09:46:47;2.28;;;2.00;;
14096;SDS011;7125;48.106;11.544;2022-08-01T09:49:17;2.33;;;2.13;;
14096;SDS011;7125;48.106;11.544;2022-08-01T09:51:53;2.05;;;1.95;;
14096;SDS011;7125;48.106;11.544;2022-08-01T09:54:27;2.75;;;2.17;;
14096;SDS011;7125;48.106;11.544;2022-08-01T09:57:07;2.38;;;2.17;;
14096;SDS011;7125;48.106;11.544;2022-08-01T09:59:36;2.05;;;1.95;;
14096;SDS011;7125;48.106;11.544;2022-08-01T10:02:05;1.92;;;1.83;;
14096;SDS011;7125;48.106;11.544;2022-08-01T10:04:34;2.08;;;1.88;;
14096;SDS011;7125;48.106;11.544;2022-08-01T10:07:05;2.20;;;2.00;;
14096;SDS011;7125;48.106;11.544;2022-08-01T10:09:35;2.17;;;1.95;;
14096;SDS011;7125;48.106;11.544;2022-08-01T10:12:03;2.65;;;2.35;;
14096;SDS011;7125;48.106;11.544;2022-08-01T10:14:30;1.83;;;1.73;;
14096;SDS011;7125;48.106;11.544;2022-08-01T10:16:58;2.95;;;2.03;;
14096;SDS011;7125;48.106;11.544;2022-08-01T10:19:26;2.10;;;2.00;;
14096;SDS011;7125;48.106;11.544;2022-08-01T10:21:56;2.13;;;2.03;;
14096;SDS011;7125;48.106;11.544;2022-08-01T10:24:24;2.53;;;2.33;;
14096;SDS011;7125;48.106;11.544;2022-08-01T10:26:52;2.25;;;2.10;;
14096;SDS011;7125;48.106;11.544;2022-08-01T10:29:25;5.57;;;2.55;;
14096;SDS011;7125;48.106;11.544;2022-08-01T10:31:53;2.30;;;1.92;;
14096;SDS011;7125;48.106;11.544;2022-08-01T10:34:21;3.10;;;1.88;;
14096;SDS011;7125;48.106;11.544;2022-08-01T10:36:52;2.53;;;2.00;;
14096;SDS011;7125;48.106;11.544;2022-08-01T10:39:20;2.20;;;1.73;;
14096;SDS011;7125;48.106;11.544;2022-08-01T10:41:48;1.88;;;1.75;;
14096;SDS011;7125;48.106;11.544;2022-08-01T10:44:17;1.60;;;1.50;;
14096;SDS011;7125;48.106;11.544;2022-08-01T10:46:46;2.03;;;1.52;;
14096;SDS011;7125;48.106;11.544;2022-08-01T10:49:19;5.05;;;1.70;;
14096;SDS011;7125;48.106;11.544;2022-08-01T10:51:48;2.88;;;1.85;;
14096;SDS011;7125;48.106;11.544;2022-08-01T10:54:15;1.85;;;1.75;;
14096;SDS011;7125;48.106;11.544;2022-08-01T10:56:44;3.50;;;1.88;;
14096;SDS011;7125;48.106;11.544;2022-08-01T10:59:14;1.75;;;1.65;;
14096;SDS011;7125;48.106;11.544;2022-08-01T11:01:54;2.35;;;2.15;;
14096;SDS011;7125;48.106;11.544;2022-08-01T11:04:28;2.42;;;1.30;;
14096;SDS011;7125;48.106;11.544;2022-08-01T11:07:03;3.67;;;1.80;;
14096;SDS011;7125;48.106;11.544;2022-08-01T11:09:39;1.85;;;1.75;;
14096;SDS011;7125;48.106;11.544;2022-08-01T11:12:09;1.80;;;1.52;;
14096;SDS011;7125;48.106;11.544;2022-08-01T11:17:49;1.38;;;1.27;;
14096;SDS011;7125;48.106;11.544;2022-08-01T11:20:17;2.72;;;2.03;;
14096;SDS011;7125;48.106;11.544;2022-08-01T11:26:07;2.85;;;1.83;;
14096;SDS011;7125;48.106;11.544;2022-08-01T11:28:37;3.03;;;1.98;;
14096;SDS011;7125;48.106;11.544;2022-08-01T11:33:54;2.05;;;1.85;;
14096;SDS011;7125;48.106;11.544;2022-08-01T11:36:21;2.08;;;1.83;;
14096;SDS011;7125;48.106;11.544;2022-08-01T11:38:49;2.58;;;2.35;;
14096;SDS011;7125;48.106;11.544;2022-08-01T11:41:32;2.35;;;1.88;;
14096;SDS011;7125;48.106;11.544;2022-08-01T11:44:02;2.47;;;1.90;;
14096;SDS011;7125;48.106;11.544;2022-08-01T11:49:33;2.50;;;1.90;;
14096;SDS011;7125;48.106;11.544;2022-08-01T11:52:11;2.58;;;1.92;;
14096;SDS011;7125;48.106;11.544;2022-08-01T11:54:41;1.60;;;1.50;;
14096;SDS011;7125;48.106;11.544;2022-08-01T11:57:10;6.20;;;1.83;;
14096;SDS011;7125;48.106;11.544;2022-08-01T11:59:40;1.55;;;1.45;;
14096;SDS011;7125;48.106;11.544;2022-08-01T12:02:18;1.35;;;1.27;;
14096;SDS011;7125;48.106;11.544;2022-08-01T12:04:47;1.98;;;1.30;;
14096;SDS011;7125;48.106;11.544;2022-08-01T12:07:16;2.03;;;1.92;;
14096;SDS011;7125;48.106;11.544;2022-08-01T12:09:44;4.22;;;1.65;;
14096;SDS011;7125;48.106;11.544;2022-08-01T12:12:11;1.85;;;1.65;;
14096;SDS011;7125;48.106;11.544;2022-08-01T12:14:44;2.90;;;1.80;;
14096;SDS011;7125;48.106;11.544;2022-08-01T12:17:12;1.77;;;1.67;;
14096;SDS011;7125;48.106;11.544;2022-08-01T12:19:39;1.50;;;1.40;;
14096;SDS011;7125;48.106;11.544;2022-08-01T12:22:07;1.92;;;1.73;;
14096;SDS011;7125;48.106;11.544;2022-08-01T12:24:36;1.60;;;1.50;;
14096;SDS011;7125;48.106;11.544;2022-08-01T12:27:04;3.00;;;1.83;;
14096;SDS011;7125;48.106;11.544;2022-08-01T12:29:32;1.67;;;1.58;;
14096;SDS011;7125;48.106;11.544;2022-08-01T12:32:01;1.50;;;1.40;;
14096;SDS011;7125;48.106;11.544;2022-08-01T12:34:28;1.85;;;1.73;;
14096;SDS011;7125;48.106;11.544;2022-08-01T12:36:59;1.58;;;1.25;;
14096;SDS011;7125;48.106;11.544;2022-08-01T12:39:33;2.17;;;1.70;;
14096;SDS011;7125;48.106;11.544;2022-08-01T12:42:00;1.63;;;1.52;;
14096;SDS011;7125;48.106;11.544;2022-08-01T12:44:31;1.70;;;1.60;;
14096;SDS011;7125;48.106;11.544;2022-08-01T12:46:58;1.35;;;1.25;;
14096;SDS011;7125;48.106;11.544;2022-08-01T12:49:27;1.05;;;1.05;;
14096;SDS011;7125;48.106;11.544;2022-08-01T12:51:54;1.52;;;1.33;;
14096;SDS011;7125;48.106;11.544;2022-08-01T12:54:22;1.48;;;1.20;;
14096;SDS011;7125;48.106;11.544;2022-08-01T12:56:50;5.47;;;1.83;;
14096;SDS011;7125;48.106;11.544;2022-08-01T12:59:22;1.38;;;1.27;;
14096;SDS011;7125;48.106;11.544;2022-08-01T13:01:50;1.58;;;1.42;;
14096;SDS011;7125;48.106;11.544;2022-08-01T13:04:18;1.38;;;1.27;;
14096;SDS011;7125;48.106;11.544;2022-08-01T13:06:48;2.40;;;1.15;;
14096;SDS011;7125;48.106;11.544;2022-08-01T13:09:18;1.27;;;1.25;;
14096;SDS011;7125;48.106;11.544;2022-08-01T13:11:45;1.55;;;1.33;;
14096;SDS011;7125;48.106;11.544;2022-08-01T13:14:25;2.15;;;1.63;;
14096;SDS011;7125;48.106;11.544;2022-08-01T13:16:52;2.45;;;1.52;;
14096;SDS011;7125;48.106;11.544;2022-08-01T13:19:19;2.38;;;1.63;;
14096;SDS011;7125;48.106;11.544;2022-08-01T13:21:54;5.65;;;1.42;;
14096;SDS011;7125;48.106;11.544;2022-08-01T13:24:22;1.70;;;1.60;;
14096;SDS011;7125;48.106;11.544;2022-08-01T13:26:52;1.38;;;1.33;;
14096;SDS011;7125;48.106;11.544;2022-08-01T13:29:29;1.92;;;1.83;;
14096;SDS011;7125;48.106;11.544;2022-08-01T13:31:57;2.50;;;1.60;;
14096;SDS011;7125;48.106;11.544;2022-08-01T13:34:30;1.70;;;1.60;;
14096;SDS011;7125;48.106;11.544;2022-08-01T13:36:59;2.10;;;1.42;;
14096;SDS011;7125;48.106;11.544;2022-08-01T13:39:27;2.47;;;1.63;;
14096;SDS011;7125;48.106;11.544;2022-08-01T13:42:07;1.85;;;1.40;;
14096;SDS011;7125;48.106;11.544;2022-08-01T13:44:34;1.58;;;1.48;;
14096;SDS011;7125;48.106;11.544;2022-08-01T13:47:01;4.22;;;1.52;;
14096;SDS011;7125;48.106;11.544;2022-08-01T13:49:29;2.95;;;1.70;;
14096;SDS011;7125;48.106;11.544;2022-08-01T13:51:56;1.60;;;1.42;;
14096;SDS011;7125;48.106;11.544;2022-08-01T13:54:24;1.42;;;1.33;;
14096;SDS011;7125;48.106;11.544;2022-08-01T13:56:52;2.30;;;1.77;;
14096;SDS011;7125;48.106;11.544;2022-08-01T13:59:19;2.15;;;1.33;;
14096;SDS011;7125;48.106;11.544;2022-08-01T14:01:46;1.42;;;1.20;;
14096;SDS011;7125;48.106;11.544;2022-08-01T14:04:13;1.42;;;1.33;;
14096;SDS011;7125;48.106;11.544;2022-08-01T14:06:40;2.60;;;1.42;;
14096;SDS011;7125;48.106;11.544;2022-08-01T14:09:07;3.70;;;0.82;;
14096;SDS011;7125;48.106;11.544;2022-08-01T14:11:35;1.75;;;1.25;;
14096;SDS011;7125;48.106;11.544;2022-08-01T14:14:02;2.65;;;1.23;;
14096;SDS011;7125;48.106;11.544;2022-08-01T14:16:29;1.52;;;1.20;;
14096;SDS011;7125;48.106;11.544;2022-08-01T14:18:56;1.67;;;1.35;;
14096;SDS011;7125;48.106;11.544;2022-08-01T14:21:23;4.68;;;2.00;;
14096;SDS011;7125;48.106;11.544;2022-08-01T14:23:49;1.55;;;1.38;;
14096;SDS011;7125;48.106;11.544;2022-08-01T14:26:16;1.38;;;1.27;;
14096;SDS011;7125;48.106;11.544;2022-08-01T14:28:44;2.13;;;1.35;;
14096;SDS011;7125;48.106;11.544;2022-08-01T14:31:11;3.50;;;1.67;;
14096;SDS011;7125;48.106;11.544;2022-08-01T14:33:38;1.60;;;1.50;;
14096;SDS011;7125;48.106;11.544;2022-08-01T14:36:05;1.85;;;1.70;;
14096;SDS011;7125;48.106;11.544;2022-08-01T14:38:32;3.15;;;1.42;;
14096;SDS011;7125;48.106;11.544;2022-08-01T14:40:59;2.10;;;1.38;;
14096;SDS011;7125;48.106;11.544;2022-08-01T14:43:27;1.85;;;1.75;;
14096;SDS011;7125;48.106;11.544;2022-08-01T14:45:58;3.45;;;2.15;;
14096;SDS011;7125;48.106;11.544;2022-08-01T14:48:25;8.55;;;2.28;;
14096;SDS011;7125;48.106;11.544;2022-08-01T14:50:51;1.98;;;1.75;;
14096;SDS011;7125;48.106;11.544;2022-08-01T14:53:18;2.50;;;1.77;;
14096;SDS011;7125;48.106;11.544;2022-08-01T14:55:45;2.90;;;2.08;;
14096;SDS011;7125;48.106;11.544;2022-08-01T14:58:12;3.25;;;2.10;;
14096;SDS011;7125;48.106;11.544;2022-08-01T15:00:39;3.75;;;2.15;;
14096;SDS011;7125;48.106;11.544;2022-08-01T15:03:07;3.83;;;1.75;;
14096;SDS011;7125;48.106;11.544;2022-08-01T15:05:34;2.00;;;1.90;;
14096;SDS011;7125;48.106;11.544;2022-08-01T15:08:01;3.05;;;1.70;;
14096;SDS011;7125;48.106;11.544;2022-08-01T15:10:28;6.80;;;2.25;;